sensor_id;sensor_type;location;lat;lon;timestamp;temperature;humidity
17170;DHT22;8700;48.222;16.342;2023-09-19T00:00:24;21.70;99.90
17170;DHT22;8700;48.222;16.342;2023-09-19T00:03:50;21.50;99.90
17170;DHT22;8700;48.222;16.342;2023-09-19T00:07:13;21.30;99.90
17170;DHT22;8700;48.222;16.342;2023-09-19T00:10:37;21.10;99.90
17170;DHT22;8700;48.222;16.342;2023-09-19T00:14:00;21.30;99.90
17170;DHT22;8700;48.222;16.342;2023-09-19T00:17:23;21.00;99.90
17170;DHT22;8700;48.222;16.342;2023-09-19T00:20:46;20.90;99.90
17170;DHT22;8700;48.222;16.342;2023-09-19T00:24:10;20.70;99.90
17170;DHT22;8700;48.222;16.342;2023-09-19T00:27:33;20.20;99.90
17170;DHT22;8700;48.222;16.342;2023-09-19T00:30:56;20.00;99.90
17170;DHT22;8700;48.222;16.342;2023-09-19T00:34:22;19.80;99.90
17170;DHT22;8700;48.222;16.342;2023-09-19T00:37:46;19.70;99.90
17170;DHT22;8700;48.222;16.342;2023-09-19T00:41:09;19.70;99.90
17170;DHT22;8700;48.222;16.342;2023-09-19T00:44:34;19.80;99.90
17170;DHT22;8700;48.222;16.342;2023-09-19T00:47:59;19.80;99.90
17170;DHT22;8700;48.222;16.342;2023-09-19T00:51:25;19.60;99.90
17170;DHT22;8700;48.222;16.342;2023-09-19T00:54:50;19.40;99.90
17170;DHT22;8700;48.222;16.342;2023-09-19T00:58:13;19.40;99.90
17170;DHT22;8700;48.222;16.342;2023-09-19T01:01:35;19.30;99.90
17170;DHT22;8700;48.222;16.342;2023-09-19T01:05:00;19.30;99.90
17170;DHT22;8700;48.222;16.342;2023-09-19T01:08:24;19.20;99.90
17170;DHT22;8700;48.222;16.342;2023-09-19T01:11:55;19.20;99.90
17170;DHT22;8700;48.222;16.342;2023-09-19T01:15:28;19.20;99.90
17170;DHT22;8700;48.222;16.342;2023-09-19T01:19:00;19.30;99.90
17170;DHT22;8700;48.222;16.342;2023-09-19T01:22:32;19.30;99.90
17170;DHT22;8700;48.222;16.342;2023-09-19T01:26:06;19.20;99.90
17170;DHT22;8700;48.222;16.342;2023-09-19T01:29:37;19.10;99.90
17170;DHT22;8700;48.222;16.342;2023-09-19T01:33:03;19.10;99.90
17170;DHT22;8700;48.222;16.342;2023-09-19T01:36:28;18.90;99.90
17170;DHT22;8700;48.222;16.342;2023-09-19T01:39:55;18.90;99.90
17170;DHT22;8700;48.222;16.342;2023-09-19T01:43:22;18.80;99.90
17170;DHT22;8700;48.222;16.342;2023-09-19T01:46:47;18.90;99.90
17170;DHT22;8700;48.222;16.342;2023-09-19T01:50:20;19.00;99.90
17170;DHT22;8700;48.222;16.342;2023-09-19T01:53:50;19.00;99.90
17170;DHT22;8700;48.222;16.342;2023-09-19T01:57:20;19.00;99.90
17170;DHT22;8700;48.222;16.342;2023-09-19T02:00:47;19.10;99.90
17170;DHT22;8700;48.222;16.342;2023-09-19T02:04:12;19.00;99.90
17170;DHT22;8700;48.222;16.342;2023-09-19T02:07:38;19.00;99.90
17170;DHT22;8700;48.222;16.342;2023-09-19T02:11:01;18.90;99.90
17170;DHT22;8700;48.222;16.342;2023-09-19T02:14:23;18.90;99.90
17170;DHT22;8700;48.222;16.342;2023-09-19T02:17:46;19.00;99.90
17170;DHT22;8700;48.222;16.342;2023-09-19T02:21:08;18.80;99.90
17170;DHT22;8700;48.222;16.342;2023-09-19T02:24:35;18.80;99.90
17170;DHT22;8700;48.222;16.342;2023-09-19T02:27:58;18.80;99.90
17170;DHT22;8700;48.222;16.342;2023-09-19T02:31:22;18.90;99.90
17170;DHT22;8700;48.222;16.342;2023-09-19T02:34:44;18.90;99.90
17170;DHT22;8700;48.222;16.342;2023-09-19T02:38:07;19.00;99.90
17170;DHT22;8700;48.222;16.342;2023-09-19T02:41:33;19.20;99.90
17170;DHT22;8700;48.222;16.342;2023-09-19T02:44:55;19.30;99.90
17170;DHT22;8700;48.222;16.342;2023-09-19T02:48:19;19.30;99.90
17170;DHT22;8700;48.222;16.342;2023-09-19T02:51:42;19.30;99.90
17170;DHT22;8700;48.222;16.342;2023-09-19T02:55:04;19.20;99.90
17170;DHT22;8700;48.222;16.342;2023-09-19T02:58:31;19.40;99.90
17170;DHT22;8700;48.222;16.342;2023-09-19T03:01:55;19.50;99.90
17170;DHT22;8700;48.222;16.342;2023-09-19T03:05:18;19.60;99.90
17170;DHT22;8700;48.222;16.342;2023-09-19T03:08:41;19.70;99.90
17170;DHT22;8700;48.222;16.342;2023-09-19T03:12:05;19.80;99.90
17170;DHT22;8700;48.222;16.342;2023-09-19T03:15:29;19.80;99.90
17170;DHT22;8700;48.222;16.342;2023-09-19T03:18:52;19.80;99.90
17170;DHT22;8700;48.222;16.342;2023-09-19T03:22:14;19.90;99.90
17170;DHT22;8700;48.222;16.342;2023-09-19T03:25:36;19.70;99.90
17170;DHT22;8700;48.222;16.342;2023-09-19T03:29:03;19.80;99.90
17170;DHT22;8700;48.222;16.342;2023-09-19T03:32:29;19.70;99.90
17170;DHT22;8700;48.222;16.342;2023-09-19T03:35:52;19.80;99.90
17170;DHT22;8700;48.222;16.342;2023-09-19T03:39:15;19.70;99.90
17170;DHT22;8700;48.222;16.342;2023-09-19T03:42:38;19.90;99.90
17170;DHT22;8700;48.222;16.342;2023-09-19T03:46:02;19.90;99.90
17170;DHT22;8700;48.222;16.342;2023-09-19T03:49:27;20.00;99.90
17170;DHT22;8700;48.222;16.342;2023-09-19T03:52:50;19.80;99.90
17170;DHT22;8700;48.222;16.342;2023-09-19T03:56:17;19.80;99.90
17170;DHT22;8700;48.222;16.342;2023-09-19T03:59:40;19.80;99.90
17170;DHT22;8700;48.222;16.342;2023-09-19T04:03:03;19.70;99.90
17170;DHT22;8700;48.222;16.342;2023-09-19T04:06:28;19.60;99.90
17170;DHT22;8700;48.222;16.342;2023-09-19T04:09:51;19.60;99.90
17170;DHT22;8700;48.222;16.342;2023-09-19T04:13:14;19.60;99.90
17170;DHT22;8700;48.222;16.342;2023-09-19T04:16:36;19.50;99.90
17170;DHT22;8700;48.222;16.342;2023-09-19T04:19:59;19.50;99.90
17170;DHT22;8700;48.222;16.342;2023-09-19T04:23:23;19.40;99.90
17170;DHT22;8700;48.222;16.342;2023-09-19T04:26:46;19.50;99.90
17170;DHT22;8700;48.222;16.342;2023-09-19T04:30:08;19.50;99.90
17170;DHT22;8700;48.222;16.342;2023-09-19T04:33:32;19.40;99.90
17170;DHT22;8700;48.222;16.342;2023-09-19T04:36:55;19.40;99.90
17170;DHT22;8700;48.222;16.342;2023-09-19T04:40:20;19.30;99.90
17170;DHT22;8700;48.222;16.342;2023-09-19T04:43:43;19.30;99.90
17170;DHT22;8700;48.222;16.342;2023-09-19T04:47:06;19.40;99.90
17170;DHT22;8700;48.222;16.342;2023-09-19T04:50:28;19.20;99.90
17170;DHT22;8700;48.222;16.342;2023-09-19T04:53:50;19.10;99.90
17170;DHT22;8700;48.222;16.342;2023-09-19T04:57:15;18.80;99.90
17170;DHT22;8700;48.222;16.342;2023-09-19T05:00:38;18.80;99.90
17170;DHT22;8700;48.222;16.342;2023-09-19T05:04:01;18.90;99.90
17170;DHT22;8700;48.222;16.342;2023-09-19T05:07:25;18.80;99.90
17170;DHT22;8700;48.222;16.342;2023-09-19T05:10:48;18.80;99.90
17170;DHT22;8700;48.222;16.342;2023-09-19T05:14:13;18.80;99.90
17170;DHT22;8700;48.222;16.342;2023-09-19T05:17:36;18.90;99.90
17170;DHT22;8700;48.222;16.342;2023-09-19T05:21:02;19.00;99.90
17170;DHT22;8700;48.222;16.342;2023-09-19T05:24:26;19.20;99.90
17170;DHT22;8700;48.222;16.342;2023-09-19T05:27:49;19.10;99.90
17170;DHT22;8700;48.222;16.342;2023-09-19T05:31:15;19.20;99.90
17170;DHT22;8700;48.222;16.342;2023-09-19T05:34:39;19.10;99.90
17170;DHT22;8700;48.222;16.342;2023-09-19T05:38:02;19.10;99.90
17170;DHT22;8700;48.222;16.342;2023-09-19T05:41:26;19.10;99.90
17170;DHT22;8700;48.222;16.342;2023-09-19T05:44:48;19.10;99.90
17170;DHT22;8700;48.222;16.342;2023-09-19T05:48:14;19.20;99.90
17170;DHT22;8700;48.222;16.342;2023-09-19T05:51:37;19.10;99.90
17170;DHT22;8700;48.222;16.342;2023-09-19T05:55:00;19.10;99.90
17170;DHT22;8700;48.222;16.342;2023-09-19T05:58:27;19.10;99.90
17170;DHT22;8700;48.222;16.342;2023-09-19T06:01:51;19.20;99.90
17170;DHT22;8700;48.222;16.342;2023-09-19T06:05:18;19.40;99.90
17170;DHT22;8700;48.222;16.342;2023-09-19T06:08:42;19.60;99.90
17170;DHT22;8700;48.222;16.342;2023-09-19T06:12:09;19.60;99.90
17170;DHT22;8700;48.222;16.342;2023-09-19T06:15:38;19.80;99.90
17170;DHT22;8700;48.222;16.342;2023-09-19T06:19:02;19.90;99.90
17170;DHT22;8700;48.222;16.342;2023-09-19T06:26:58;20.10;99.90
17170;DHT22;8700;48.222;16.342;2023-09-19T06:30:22;20.30;99.90
17170;DHT22;8700;48.222;16.342;2023-09-19T06:33:48;20.40;99.90
17170;DHT22;8700;48.222;16.342;2023-09-19T06:37:11;20.40;99.90
17170;DHT22;8700;48.222;16.342;2023-09-19T06:40:35;20.30;99.90
17170;DHT22;8700;48.222;16.342;2023-09-19T06:43:58;20.50;99.90
17170;DHT22;8700;48.222;16.342;2023-09-19T06:47:21;20.50;99.90
17170;DHT22;8700;48.222;16.342;2023-09-19T06:50:46;20.60;99.90
17170;DHT22;8700;48.222;16.342;2023-09-19T06:54:10;20.60;99.90
17170;DHT22;8700;48.222;16.342;2023-09-19T06:57:32;20.70;99.90
17170;DHT22;8700;48.222;16.342;2023-09-19T07:00:57;20.60;99.90
17170;DHT22;8700;48.222;16.342;2023-09-19T07:04:19;20.70;99.90
17170;DHT22;8700;48.222;16.342;2023-09-19T07:07:42;20.70;99.90
17170;DHT22;8700;48.222;16.342;2023-09-19T07:11:05;20.80;99.90
17170;DHT22;8700;48.222;16.342;2023-09-19T07:14:28;20.90;99.90
17170;DHT22;8700;48.222;16.342;2023-09-19T07:17:53;21.00;99.90
17170;DHT22;8700;48.222;16.342;2023-09-19T07:21:16;21.00;99.90
17170;DHT22;8700;48.222;16.342;2023-09-19T07:24:40;20.90;99.90
17170;DHT22;8700;48.222;16.342;2023-09-19T07:28:05;20.80;99.90
17170;DHT22;8700;48.222;16.342;2023-09-19T07:31:28;20.60;99.90
17170;DHT22;8700;48.222;16.342;2023-09-19T07:34:54;20.60;99.90
17170;DHT22;8700;48.222;16.342;2023-09-19T07:38:17;20.50;99.90
17170;DHT22;8700;48.222;16.342;2023-09-19T07:41:42;20.50;99.90
17170;DHT22;8700;48.222;16.342;2023-09-19T07:45:07;20.70;99.90
17170;DHT22;8700;48.222;16.342;2023-09-19T07:48:31;20.50;99.90
17170;DHT22;8700;48.222;16.342;2023-09-19T07:51:56;20.40;99.90
17170;DHT22;8700;48.222;16.342;2023-09-19T07:55:20;20.50;99.90
17170;DHT22;8700;48.222;16.342;2023-09-19T07:58:45;20.90;99.90
17170;DHT22;8700;48.222;16.342;2023-09-19T08:02:09;21.10;99.90
17170;DHT22;8700;48.222;16.342;2023-09-19T08:05:36;21.30;99.90
17170;DHT22;8700;48.222;16.342;2023-09-19T08:09:00;21.30;99.90
17170;DHT22;8700;48.222;16.342;2023-09-19T08:12:27;21.30;99.90
17170;DHT22;8700;48.222;16.342;2023-09-19T08:15:51;21.70;99.90
17170;DHT22;8700;48.222;16.342;2023-09-19T08:19:14;22.10;99.90
17170;DHT22;8700;48.222;16.342;2023-09-19T08:22:38;22.10;99.90
17170;DHT22;8700;48.222;16.342;2023-09-19T08:26:02;22.20;99.90
17170;DHT22;8700;48.222;16.342;2023-09-19T08:29:28;22.50;99.90
17170;DHT22;8700;48.222;16.342;2023-09-19T08:32:51;22.30;99.90
17170;DHT22;8700;48.222;16.342;2023-09-19T08:36:20;22.60;99.90
17170;DHT22;8700;48.222;16.342;2023-09-19T08:39:42;22.50;99.90
17170;DHT22;8700;48.222;16.342;2023-09-19T08:43:07;22.20;99.90
17170;DHT22;8700;48.222;16.342;2023-09-19T08:46:30;22.30;99.90
17170;DHT22;8700;48.222;16.342;2023-09-19T08:50:01;22.20;99.90
17170;DHT22;8700;48.222;16.342;2023-09-19T08:53:39;22.30;99.90
17170;DHT22;8700;48.222;16.342;2023-09-19T08:57:07;22.10;99.90
17170;DHT22;8700;48.222;16.342;2023-09-19T09:00:35;22.00;99.90
17170;DHT22;8700;48.222;16.342;2023-09-19T09:03:59;22.10;99.90
17170;DHT22;8700;48.222;16.342;2023-09-19T09:07:23;22.30;99.90
17170;DHT22;8700;48.222;16.342;2023-09-19T09:10:49;22.30;99.90
17170;DHT22;8700;48.222;16.342;2023-09-19T09:14:12;22.20;99.90
17170;DHT22;8700;48.222;16.342;2023-09-19T09:17:36;22.20;99.90
17170;DHT22;8700;48.222;16.342;2023-09-19T09:20:59;22.20;99.90
17170;DHT22;8700;48.222;16.342;2023-09-19T09:24:28;22.10;99.90
17170;DHT22;8700;48.222;16.342;2023-09-19T09:28:00;21.90;99.90
17170;DHT22;8700;48.222;16.342;2023-09-19T09:31:24;21.70;99.90
17170;DHT22;8700;48.222;16.342;2023-09-19T09:34:51;21.70;99.90
17170;DHT22;8700;48.222;16.342;2023-09-19T09:38:14;22.10;99.90
17170;DHT22;8700;48.222;16.342;2023-09-19T09:41:39;22.60;99.90
17170;DHT22;8700;48.222;16.342;2023-09-19T09:45:16;23.30;99.90
17170;DHT22;8700;48.222;16.342;2023-09-19T09:48:39;24.40;99.90
17170;DHT22;8700;48.222;16.342;2023-09-19T09:52:08;24.90;99.90
17170;DHT22;8700;48.222;16.342;2023-09-19T09:55:59;25.80;99.90
17170;DHT22;8700;48.222;16.342;2023-09-19T09:59:22;27.10;99.90
17170;DHT22;8700;48.222;16.342;2023-09-19T10:02:48;28.30;99.90
17170;DHT22;8700;48.222;16.342;2023-09-19T10:06:14;26.80;99.90
17170;DHT22;8700;48.222;16.342;2023-09-19T10:09:54;26.40;99.90
17170;DHT22;8700;48.222;16.342;2023-09-19T10:13:29;26.10;99.90
17170;DHT22;8700;48.222;16.342;2023-09-19T10:16:54;26.30;99.90
17170;DHT22;8700;48.222;16.342;2023-09-19T10:20:22;27.00;99.90
17170;DHT22;8700;48.222;16.342;2023-09-19T10:23:54;27.70;99.90
17170;DHT22;8700;48.222;16.342;2023-09-19T10:27:19;27.50;99.90
17170;DHT22;8700;48.222;16.342;2023-09-19T10:30:43;26.70;99.90
17170;DHT22;8700;48.222;16.342;2023-09-19T10:34:08;26.90;99.90
17170;DHT22;8700;48.222;16.342;2023-09-19T10:37:32;27.50;99.90
17170;DHT22;8700;48.222;16.342;2023-09-19T10:41:00;27.70;99.90
17170;DHT22;8700;48.222;16.342;2023-09-19T10:44:25;28.40;99.90
17170;DHT22;8700;48.222;16.342;2023-09-19T10:47:50;28.60;99.90
17170;DHT22;8700;48.222;16.342;2023-09-19T10:51:16;29.40;99.90
17170;DHT22;8700;48.222;16.342;2023-09-19T10:54:46;29.70;99.40
17170;DHT22;8700;48.222;16.342;2023-09-19T10:58:12;28.90;99.90
17170;DHT22;8700;48.222;16.342;2023-09-19T11:01:45;29.20;99.20
17170;DHT22;8700;48.222;16.342;2023-09-19T11:05:12;29.70;98.10
17170;DHT22;8700;48.222;16.342;2023-09-19T11:08:52;30.10;97.00
17170;DHT22;8700;48.222;16.342;2023-09-19T11:12:48;30.80;96.10
17170;DHT22;8700;48.222;16.342;2023-09-19T11:16:18;31.40;95.10
17170;DHT22;8700;48.222;16.342;2023-09-19T11:20:23;30.80;94.70
17170;DHT22;8700;48.222;16.342;2023-09-19T11:31:48;27.70;97.70
17170;DHT22;8700;48.222;16.342;2023-09-19T11:35:12;27.20;98.70
17170;DHT22;8700;48.222;16.342;2023-09-19T11:39:03;26.80;99.90
17170;DHT22;8700;48.222;16.342;2023-09-19T11:42:43;27.20;99.90
17170;DHT22;8700;48.222;16.342;2023-09-19T11:46:06;27.00;99.30
17170;DHT22;8700;48.222;16.342;2023-09-19T11:49:29;28.20;98.70
17170;DHT22;8700;48.222;16.342;2023-09-19T11:52:53;29.60;95.50
17170;DHT22;8700;48.222;16.342;2023-09-19T11:56:19;28.40;95.50
17170;DHT22;8700;48.222;16.342;2023-09-19T11:59:44;27.70;96.90
17170;DHT22;8700;48.222;16.342;2023-09-19T12:03:10;27.50;96.70
17170;DHT22;8700;48.222;16.342;2023-09-19T12:06:34;27.90;96.50
17170;DHT22;8700;48.222;16.342;2023-09-19T12:10:04;28.00;97.00
17170;DHT22;8700;48.222;16.342;2023-09-19T12:13:33;27.50;97.20
17170;DHT22;8700;48.222;16.342;2023-09-19T12:16:56;26.80;98.30
17170;DHT22;8700;48.222;16.342;2023-09-19T12:20:21;27.00;98.00
17170;DHT22;8700;48.222;16.342;2023-09-19T12:23:44;27.10;97.50
17170;DHT22;8700;48.222;16.342;2023-09-19T12:27:07;26.60;97.60
17170;DHT22;8700;48.222;16.342;2023-09-19T12:30:32;26.40;98.50
17170;DHT22;8700;48.222;16.342;2023-09-19T12:33:57;27.00;97.70
17170;DHT22;8700;48.222;16.342;2023-09-19T12:37:21;27.20;96.90
17170;DHT22;8700;48.222;16.342;2023-09-19T12:40:50;27.30;96.70
17170;DHT22;8700;48.222;16.342;2023-09-19T12:44:14;27.30;95.40
17170;DHT22;8700;48.222;16.342;2023-09-19T12:47:40;27.30;96.10
17170;DHT22;8700;48.222;16.342;2023-09-19T12:51:05;27.30;96.80
17170;DHT22;8700;48.222;16.342;2023-09-19T12:54:38;27.40;96.60
17170;DHT22;8700;48.222;16.342;2023-09-19T12:58:12;27.50;96.30
17170;DHT22;8700;48.222;16.342;2023-09-19T13:01:35;27.80;95.50
17170;DHT22;8700;48.222;16.342;2023-09-19T13:05:03;28.40;95.50
17170;DHT22;8700;48.222;16.342;2023-09-19T13:08:29;28.90;94.20
17170;DHT22;8700;48.222;16.342;2023-09-19T13:11:54;28.90;93.80
17170;DHT22;8700;48.222;16.342;2023-09-19T13:15:16;28.30;93.70
17170;DHT22;8700;48.222;16.342;2023-09-19T13:18:47;28.20;94.10
17170;DHT22;8700;48.222;16.342;2023-09-19T13:22:38;27.70;93.60
17170;DHT22;8700;48.222;16.342;2023-09-19T13:26:00;27.80;93.50
17170;DHT22;8700;48.222;16.342;2023-09-19T13:29:25;28.00;92.80
17170;DHT22;8700;48.222;16.342;2023-09-19T13:32:48;28.30;92.40
17170;DHT22;8700;48.222;16.342;2023-09-19T13:36:10;28.70;91.10
17170;DHT22;8700;48.222;16.342;2023-09-19T13:39:35;28.90;90.80
17170;DHT22;8700;48.222;16.342;2023-09-19T13:42:59;28.40;90.80
17170;DHT22;8700;48.222;16.342;2023-09-19T13:46:23;28.40;91.00
17170;DHT22;8700;48.222;16.342;2023-09-19T13:49:48;28.60;90.80
17170;DHT22;8700;48.222;16.342;2023-09-19T13:53:11;28.80;90.40
17170;DHT22;8700;48.222;16.342;2023-09-19T13:56:37;28.40;90.70
17170;DHT22;8700;48.222;16.342;2023-09-19T14:00:00;28.10;91.00
17170;DHT22;8700;48.222;16.342;2023-09-19T14:03:23;27.70;91.30
17170;DHT22;8700;48.222;16.342;2023-09-19T14:06:45;27.60;91.60
17170;DHT22;8700;48.222;16.342;2023-09-19T14:10:10;27.60;91.70
17170;DHT22;8700;48.222;16.342;2023-09-19T14:13:34;28.00;91.60
17170;DHT22;8700;48.222;16.342;2023-09-19T14:16:58;27.30;91.90
17170;DHT22;8700;48.222;16.342;2023-09-19T14:20:23;27.40;91.90
17170;DHT22;8700;48.222;16.342;2023-09-19T14:23:48;27.60;92.00
17170;DHT22;8700;48.222;16.342;2023-09-19T14:27:11;27.90;91.70
17170;DHT22;8700;48.222;16.342;2023-09-19T14:30:35;27.80;91.30
17170;DHT22;8700;48.222;16.342;2023-09-19T14:33:59;27.10;92.20
17170;DHT22;8700;48.222;16.342;2023-09-19T14:37:22;27.00;92.10
17170;DHT22;8700;48.222;16.342;2023-09-19T14:40:45;27.30;91.80
17170;DHT22;8700;48.222;16.342;2023-09-19T14:44:12;26.90;92.00
17170;DHT22;8700;48.222;16.342;2023-09-19T14:47:38;26.80;92.30
17170;DHT22;8700;48.222;16.342;2023-09-19T14:51:03;26.90;92.40
17170;DHT22;8700;48.222;16.342;2023-09-19T14:54:25;26.90;92.30
17170;DHT22;8700;48.222;16.342;2023-09-19T14:57:50;26.90;92.40
17170;DHT22;8700;48.222;16.342;2023-09-19T15:01:14;27.00;92.30
17170;DHT22;8700;48.222;16.342;2023-09-19T15:09:25;26.00;93.90
17170;DHT22;8700;48.222;16.342;2023-09-19T15:12:50;26.00;94.50
17170;DHT22;8700;48.222;16.342;2023-09-19T15:16:13;26.20;94.70
17170;DHT22;8700;48.222;16.342;2023-09-19T15:19:37;25.80;95.30
17170;DHT22;8700;48.222;16.342;2023-09-19T15:22:59;25.50;95.80
17170;DHT22;8700;48.222;16.342;2023-09-19T15:26:25;25.20;96.50
17170;DHT22;8700;48.222;16.342;2023-09-19T15:29:48;25.10;97.00
17170;DHT22;8700;48.222;16.342;2023-09-19T15:33:11;24.90;97.20
17170;DHT22;8700;48.222;16.342;2023-09-19T15:36:33;25.10;97.20
17170;DHT22;8700;48.222;16.342;2023-09-19T15:39:56;25.30;96.70
17170;DHT22;8700;48.222;16.342;2023-09-19T15:43:21;25.40;97.00
17170;DHT22;8700;48.222;16.342;2023-09-19T15:46:44;25.50;96.90
17170;DHT22;8700;48.222;16.342;2023-09-19T15:50:07;25.40;96.80
17170;DHT22;8700;48.222;16.342;2023-09-19T15:53:42;25.10;97.30
17170;DHT22;8700;48.222;16.342;2023-09-19T15:57:05;24.80;97.80
17170;DHT22;8700;48.222;16.342;2023-09-19T16:00:30;24.70;98.40
17170;DHT22;8700;48.222;16.342;2023-09-19T16:03:54;24.70;98.40
17170;DHT22;8700;48.222;16.342;2023-09-19T16:07:18;24.50;98.70
17170;DHT22;8700;48.222;16.342;2023-09-19T16:10:41;24.50;98.70
17170;DHT22;8700;48.222;16.342;2023-09-19T16:14:06;24.40;98.80
17170;DHT22;8700;48.222;16.342;2023-09-19T16:17:31;24.10;99.20
17170;DHT22;8700;48.222;16.342;2023-09-19T16:21:01;23.80;99.60
17170;DHT22;8700;48.222;16.342;2023-09-19T16:24:25;23.80;99.70
17170;DHT22;8700;48.222;16.342;2023-09-19T16:27:48;23.70;99.90
17170;DHT22;8700;48.222;16.342;2023-09-19T16:31:11;23.70;99.90
17170;DHT22;8700;48.222;16.342;2023-09-19T16:39:08;23.60;99.90
17170;DHT22;8700;48.222;16.342;2023-09-19T16:42:31;23.70;99.90
17170;DHT22;8700;48.222;16.342;2023-09-19T16:45:54;23.50;99.90
17170;DHT22;8700;48.222;16.342;2023-09-19T16:49:17;23.40;99.90
17170;DHT22;8700;48.222;16.342;2023-09-19T16:52:39;23.10;99.90
17170;DHT22;8700;48.222;16.342;2023-09-19T16:56:04;23.20;99.90
17170;DHT22;8700;48.222;16.342;2023-09-19T16:59:29;23.20;99.90
17170;DHT22;8700;48.222;16.342;2023-09-19T17:02:52;23.20;99.90
17170;DHT22;8700;48.222;16.342;2023-09-19T17:06:17;23.10;99.90
17170;DHT22;8700;48.222;16.342;2023-09-19T17:09:43;23.00;99.90
17170;DHT22;8700;48.222;16.342;2023-09-19T17:13:08;22.90;99.90
17170;DHT22;8700;48.222;16.342;2023-09-19T17:16:32;22.80;99.90
17170;DHT22;8700;48.222;16.342;2023-09-19T17:19:55;22.70;99.90
17170;DHT22;8700;48.222;16.342;2023-09-19T17:23:18;22.80;99.90
17170;DHT22;8700;48.222;16.342;2023-09-19T17:26:40;22.70;99.90
17170;DHT22;8700;48.222;16.342;2023-09-19T17:34:36;22.70;99.90
17170;DHT22;8700;48.222;16.342;2023-09-19T17:37:59;22.70;99.90
17170;DHT22;8700;48.222;16.342;2023-09-19T17:41:21;22.60;99.90
17170;DHT22;8700;48.222;16.342;2023-09-19T17:44:45;22.40;99.90
17170;DHT22;8700;48.222;16.342;2023-09-19T17:52:43;22.30;99.90
17170;DHT22;8700;48.222;16.342;2023-09-19T17:56:06;22.30;99.90
17170;DHT22;8700;48.222;16.342;2023-09-19T17:59:31;22.30;99.90
17170;DHT22;8700;48.222;16.342;2023-09-19T18:02:53;22.40;99.90
17170;DHT22;8700;48.222;16.342;2023-09-19T18:06:16;22.40;99.90
17170;DHT22;8700;48.222;16.342;2023-09-19T18:09:41;22.40;99.90
17170;DHT22;8700;48.222;16.342;2023-09-19T18:13:05;22.30;99.90
17170;DHT22;8700;48.222;16.342;2023-09-19T18:21:13;22.20;99.90
17170;DHT22;8700;48.222;16.342;2023-09-19T18:24:35;22.10;99.90
17170;DHT22;8700;48.222;16.342;2023-09-19T18:28:00;22.10;99.90
17170;DHT22;8700;48.222;16.342;2023-09-19T18:31:23;22.10;99.90
17170;DHT22;8700;48.222;16.342;2023-09-19T18:34:45;21.90;99.90
17170;DHT22;8700;48.222;16.342;2023-09-19T18:38:08;21.90;99.90
17170;DHT22;8700;48.222;16.342;2023-09-19T18:46:05;21.70;99.90
17170;DHT22;8700;48.222;16.342;2023-09-19T18:49:32;21.70;99.90
17170;DHT22;8700;48.222;16.342;2023-09-19T18:52:58;21.60;99.90
17170;DHT22;8700;48.222;16.342;2023-09-19T18:56:20;21.50;99.90
17170;DHT22;8700;48.222;16.342;2023-09-19T18:59:44;21.50;99.90
17170;DHT22;8700;48.222;16.342;2023-09-19T19:03:09;21.40;99.90
17170;DHT22;8700;48.222;16.342;2023-09-19T19:06:33;21.40;99.90
17170;DHT22;8700;48.222;16.342;2023-09-19T19:09:56;21.40;99.90
17170;DHT22;8700;48.222;16.342;2023-09-19T19:13:19;21.50;99.90
17170;DHT22;8700;48.222;16.342;2023-09-19T19:16:41;21.40;99.90
17170;DHT22;8700;48.222;16.342;2023-09-19T19:20:07;21.40;99.90
17170;DHT22;8700;48.222;16.342;2023-09-19T19:23:31;21.30;99.90
17170;DHT22;8700;48.222;16.342;2023-09-19T19:36:06;21.10;99.90
17170;DHT22;8700;48.222;16.342;2023-09-19T19:39:30;21.00;99.90
17170;DHT22;8700;48.222;16.342;2023-09-19T19:42:53;20.90;99.90
17170;DHT22;8700;48.222;16.342;2023-09-19T19:46:16;20.80;99.90
17170;DHT22;8700;48.222;16.342;2023-09-19T19:49:38;20.70;99.90
17170;DHT22;8700;48.222;16.342;2023-09-19T19:57:35;20.70;99.90
17170;DHT22;8700;48.222;16.342;2023-09-19T20:01:01;20.80;99.90
17170;DHT22;8700;48.222;16.342;2023-09-19T20:04:24;20.80;99.90
17170;DHT22;8700;48.222;16.342;2023-09-19T20:07:47;20.70;99.90
17170;DHT22;8700;48.222;16.342;2023-09-19T20:11:11;20.70;99.90
17170;DHT22;8700;48.222;16.342;2023-09-19T20:14:37;20.70;99.90
17170;DHT22;8700;48.222;16.342;2023-09-19T20:18:01;20.60;99.90
17170;DHT22;8700;48.222;16.342;2023-09-19T20:21:23;20.60;99.90
17170;DHT22;8700;48.222;16.342;2023-09-19T20:24:46;20.60;99.90
17170;DHT22;8700;48.222;16.342;2023-09-19T20:32:55;20.60;99.90
17170;DHT22;8700;48.222;16.342;2023-09-19T20:36:23;20.50;99.90
17170;DHT22;8700;48.222;16.342;2023-09-19T20:39:45;20.50;99.90
17170;DHT22;8700;48.222;16.342;2023-09-19T20:43:08;20.50;99.90
17170;DHT22;8700;48.222;16.342;2023-09-19T20:51:17;20.50;99.90
17170;DHT22;8700;48.222;16.342;2023-09-19T20:54:48;20.60;99.90
17170;DHT22;8700;48.222;16.342;2023-09-19T20:58:09;20.60;99.90
17170;DHT22;8700;48.222;16.342;2023-09-19T21:01:33;20.60;99.90
17170;DHT22;8700;48.222;16.342;2023-09-19T21:04:55;20.60;99.90
17170;DHT22;8700;48.222;16.342;2023-09-19T21:08:20;20.60;99.90
17170;DHT22;8700;48.222;16.342;2023-09-19T21:11:42;20.70;99.90
17170;DHT22;8700;48.222;16.342;2023-09-19T21:15:05;20.70;99.90
17170;DHT22;8700;48.222;16.342;2023-09-19T21:18:28;20.60;99.90
17170;DHT22;8700;48.222;16.342;2023-09-19T21:21:50;20.30;99.90
17170;DHT22;8700;48.222;16.342;2023-09-19T21:25:17;20.10;99.90
17170;DHT22;8700;48.222;16.342;2023-09-19T21:28:40;20.20;99.90
17170;DHT22;8700;48.222;16.342;2023-09-19T21:32:04;20.20;99.90
17170;DHT22;8700;48.222;16.342;2023-09-19T21:35:27;20.00;99.90
17170;DHT22;8700;48.222;16.342;2023-09-19T21:38:50;20.10;99.90
17170;DHT22;8700;48.222;16.342;2023-09-19T21:42:16;20.20;99.90
17170;DHT22;8700;48.222;16.342;2023-09-19T21:45:38;20.40;99.90
17170;DHT22;8700;48.222;16.342;2023-09-19T21:49:03;20.30;99.90
17170;DHT22;8700;48.222;16.342;2023-09-19T21:52:25;20.20;99.90
17170;DHT22;8700;48.222;16.342;2023-09-19T21:55:48;20.30;99.90
17170;DHT22;8700;48.222;16.342;2023-09-19T21:59:12;20.50;99.90
17170;DHT22;8700;48.222;16.342;2023-09-19T22:02:36;20.40;99.90
17170;DHT22;8700;48.222;16.342;2023-09-19T22:06:02;20.30;99.90
17170;DHT22;8700;48.222;16.342;2023-09-19T22:09:26;20.40;99.90
17170;DHT22;8700;48.222;16.342;2023-09-19T22:12:49;20.40;99.90
17170;DHT22;8700;48.222;16.342;2023-09-19T22:16:14;20.30;99.90
17170;DHT22;8700;48.222;16.342;2023-09-19T22:19:38;20.20;99.90
17170;DHT22;8700;48.222;16.342;2023-09-19T22:32:14;20.10;99.90
17170;DHT22;8700;48.222;16.342;2023-09-19T22:35:37;20.00;99.90
17170;DHT22;8700;48.222;16.342;2023-09-19T22:39:00;19.90;99.90
17170;DHT22;8700;48.222;16.342;2023-09-19T22:42:23;19.90;99.90
17170;DHT22;8700;48.222;16.342;2023-09-19T22:45:46;19.90;99.90